Time;durP1;ratioP1;P1;durP2;ratioP2;P2;SDS_P1;SDS_P2;PMS_P1;PMS_P2;Temp;Humidity;BMP_temperature;BMP_pressure;BME280_temperature;BME280_humidity;BME280_pressure;Samples;Min_cycle;Max_cycle;Signal;HPM_P1;HPM_P2
2022/04/18 00:01:35;;;;;;;10.77;7.93;;;9.90;1.00;;;;;;2615079;54;20398;-81
2022/04/18 00:04:01;;;;;;;7.53;6.60;;;9.90;1.00;;;;;;2614651;47;20406;-80
2022/04/18 00:06:27;;;;;;;7.63;6.93;;;9.70;1.00;;;;;;2615226;39;20832;-81
2022/04/18 00:08:53;;;;;;;8.43;7.57;;;9.70;1.00;;;;;;2614747;54;20160;-80
2022/04/18 00:11:19;;;;;;;6.80;6.37;;;9.60;1.00;;;;;;2614383;47;20170;-80
2022/04/18 00:13:44;;;;;;;8.13;6.77;;;9.60;1.00;;;;;;2614787;47;20207;-79
2022/04/18 00:16:10;;;;;;;7.13;6.63;;;9.50;1.00;;;;;;2615481;31;20657;-81
2022/04/18 00:18:36;;;;;;;8.43;7.07;;;9.60;1.00;;;;;;2614801;46;20169;-80
2022/04/18 00:21:03;;;;;;;7.80;7.10;;;9.50;1.00;;;;;;2615114;47;20191;-80
2022/04/18 00:23:29;;;;;;;6.73;6.13;;;9.50;1.00;;;;;;2615651;54;20244;-79
2022/04/18 00:25:55;;;;;;;8.43;6.00;;;9.40;1.00;;;;;;2614919;47;20939;-81
2022/04/18 00:28:22;;;;;;;7.00;6.43;;;9.30;1.00;;;;;;2615163;39;20886;-79
2022/04/18 00:30:49;;;;;;;6.80;6.17;;;9.20;1.00;;;;;;2615581;54;20154;-82
2022/04/18 00:33:15;;;;;;;6.80;6.30;;;9.30;1.00;;;;;;2614340;46;20439;-79
2022/04/18 00:35:41;;;;;;;8.40;6.53;;;9.30;1.00;;;;;;2614811;54;20422;-80
2022/04/18 00:38:07;;;;;;;7.53;6.93;;;9.40;1.00;;;;;;2614508;54;20717;-80
2022/04/18 00:40:32;;;;;;;6.97;6.47;;;9.50;1.00;;;;;;2614654;39;20693;-81
2022/04/18 00:43:06;;;;;;;7.70;6.60;;;9.50;1.00;;;;;;2614384;54;20155;-81
2022/04/18 00:45:32;;;;;;;7.10;5.90;;;9.40;1.00;;;;;;2614479;39;20556;-80
2022/04/18 00:47:58;;;;;;;5.70;5.30;;;9.50;1.00;;;;;;2614150;54;20395;-81
2022/04/18 00:50:27;;;;;;;6.43;5.90;;;9.60;1.00;;;;;;2614137;54;20391;-81
2022/04/18 00:52:54;;;;;;;6.80;6.30;;;9.60;1.00;;;;;;2613897;47;20417;-81
2022/04/18 00:55:44;;;;;;;6.03;5.43;;;9.60;1.00;;;;;;2614256;54;20406;-81
2022/04/18 00:58:11;;;;;;;6.57;6.07;;;9.50;1.00;;;;;;2614109;47;20407;-80
2022/04/18 01:00:37;;;;;;;6.13;5.63;;;9.60;1.00;;;;;;2615946;39;21157;-81
2022/04/18 01:03:05;;;;;;;5.90;5.40;;;9.60;1.00;;;;;;2614743;54;20491;-81
2022/04/18 01:05:31;;;;;;;5.63;5.13;;;9.50;1.00;;;;;;2614213;47;20378;-80
2022/04/18 01:07:58;;;;;;;6.57;6.00;;;9.30;1.00;;;;;;2614209;47;20651;-81
2022/04/18 01:10:26;;;;;;;9.77;5.90;;;9.40;1.00;;;;;;2615057;31;20755;-82
2022/04/18 01:12:52;;;;;;;6.13;5.53;;;9.30;1.00;;;;;;2614503;47;20366;-80
2022/04/18 01:15:34;;;;;;;5.97;5.40;;;9.20;1.00;;;;;;2617215;39;20867;-82
2022/04/18 01:18:29;;;;;;;6.43;5.90;;;9.10;1.00;;;;;;2618988;46;20390;-82
2022/04/18 01:21:20;;;;;;;8.83;5.20;;;8.80;1.00;;;;;;2619167;39;20827;-80
2022/04/18 01:29:56;;;;;;;6.03;5.63;;;8.70;1.00;;;;;;2618800;54;20393;-81
2022/04/18 01:32:24;;;;;;;5.97;5.47;;;8.70;1.00;;;;;;2615215;47;20399;-81
2022/04/18 01:34:52;;;;;;;6.20;5.60;;;8.60;1.00;;;;;;2614625;46;20401;-81
2022/04/18 01:37:18;;;;;;;7.37;6.77;;;8.40;1.00;;;;;;2614873;47;20450;-81
2022/04/18 01:39:44;;;;;;;6.97;6.30;;;8.20;1.00;;;;;;2614987;46;20490;-81
2022/04/18 01:42:10;;;;;;;14.23;5.33;;;8.20;1.00;;;;;;2615073;47;20390;-81
2022/04/18 01:44:36;;;;;;;6.20;5.60;;;8.10;1.00;;;;;;2614997;51;20151;-82
2022/04/18 01:47:02;;;;;;;6.20;5.70;;;7.90;1.00;;;;;;2615073;46;20488;-80
2022/04/18 01:49:28;;;;;;;6.43;5.83;;;8.00;1.00;;;;;;2614900;47;20434;-82
2022/04/18 01:51:54;;;;;;;6.37;5.83;;;7.90;1.00;;;;;;2615015;47;20430;-81
2022/04/18 01:54:21;;;;;;;6.57;6.17;;;7.80;1.00;;;;;;2614893;47;20399;-82
2022/04/18 01:56:48;;;;;;;6.70;6.10;;;7.70;1.00;;;;;;2614579;47;20406;-80
2022/04/18 01:59:14;;;;;;;7.13;6.53;;;7.70;1.50;;;;;;2614634;47;20393;-81
2022/04/18 02:01:40;;;;;;;6.00;5.60;;;7.70;1.50;;;;;;2614914;47;20406;-83
2022/04/18 02:04:07;;;;;;;6.67;5.50;;;7.60;2.30;;;;;;2614838;47;20413;-81
2022/04/18 02:06:34;;;;;;;7.80;6.10;;;7.40;3.90;;;;;;2615047;39;20764;-81
2022/04/18 02:09:01;;;;;;;8.30;7.13;;;7.30;5.70;;;;;;2614554;47;20399;-81
2022/04/18 02:11:27;;;;;;;7.17;6.47;;;7.20;7.80;;;;;;2614699;46;20396;-80
2022/04/18 02:13:55;;;;;;;6.90;6.30;;;7.10;8.60;;;;;;2614789;47;21174;-83
2022/04/18 02:16:21;;;;;;;7.43;6.47;;;7.10;9.70;;;;;;2614571;47;20419;-80
2022/04/18 02:18:51;;;;;;;6.27;5.70;;;7.10;9.60;;;;;;2614677;46;20162;-82
2022/04/18 02:21:17;;;;;;;6.77;6.13;;;7.10;9.40;;;;;;2614567;54;20446;-81
2022/04/18 02:23:43;;;;;;;7.10;6.50;;;7.00;10.50;;;;;;2614747;54;20400;-80
2022/04/18 02:26:09;;;;;;;8.60;6.93;;;7.00;12.10;;;;;;2615288;39;21052;-82
2022/04/18 02:28:37;;;;;;;7.23;6.63;;;7.00;12.70;;;;;;2614703;47;20408;-82
2022/04/18 02:31:08;;;;;;;6.37;5.77;;;6.90;13.50;;;;;;2615924;31;20846;-81
2022/04/18 02:33:34;;;;;;;6.90;6.30;;;6.80;15.10;;;;;;2618857;47;20390;-81
2022/04/18 02:36:01;;;;;;;6.63;6.03;;;6.80;17.00;;;;;;2619010;47;20379;-81
2022/04/18 02:38:28;;;;;;;7.60;6.40;;;6.80;17.80;;;;;;2619023;54;20207;-80
2022/04/18 02:40:54;;;;;;;7.03;6.30;;;6.70;18.70;;;;;;2618882;47;20416;-81
2022/04/18 02:43:21;;;;;;;6.63;6.00;;;6.60;20.60;;;;;;2618733;47;20976;-80
2022/04/18 02:45:51;;;;;;;7.73;6.80;;;6.40;23.50;;;;;;2618844;47;20390;-81
2022/04/18 02:48:42;;;;;;;8.73;7.83;;;6.20;26.00;;;;;;2617637;47;20387;-81
2022/04/18 02:51:11;;;;;;;8.07;7.37;;;6.30;27.00;;;;;;2618930;46;20394;-81
2022/04/18 02:53:38;;;;;;;8.70;7.90;;;6.40;26.90;;;;;;2618625;46;20397;-80
2022/04/18 02:56:07;;;;;;;8.67;7.13;;;6.40;27.00;;;;;;2618439;47;20460;-79
2022/04/18 02:58:42;;;;;;;10.20;8.43;;;6.30;27.90;;;;;;2618722;46;20367;-80
2022/04/18 03:01:08;;;;;;;7.30;6.60;;;6.20;29.00;;;;;;2618718;47;20928;-80
2022/04/18 03:03:34;;;;;;;7.73;7.03;;;6.10;33.00;;;;;;2617801;47;20389;-81
2022/04/18 03:06:02;;;;;;;9.37;8.30;;;6.10;35.30;;;;;;2614305;47;20157;-80
2022/04/18 03:08:28;;;;;;;10.97;8.63;;;6.10;36.30;;;;;;2614575;39;20780;-81
2022/04/18 03:11:04;;;;;;;10.90;9.00;;;6.10;36.10;;;;;;2614342;47;20909;-80
2022/04/18 03:13:33;;;;;;;11.63;9.13;;;6.10;36.20;;;;;;2614290;47;20406;-80
2022/04/18 03:16:02;;;;;;;11.73;8.40;;;6.00;38.70;;;;;;2614923;39;20746;-82
2022/04/18 03:18:28;;;;;;;12.07;10.60;;;5.90;41.70;;;;;;2614340;47;20913;-81
2022/04/18 03:20:55;;;;;;;12.23;10.37;;;5.80;46.30;;;;;;2614556;47;20449;-80
2022/04/18 03:23:21;;;;;;;13.13;9.97;;;5.90;46.70;;;;;;2614372;47;20395;-80
2022/04/18 03:26:06;;;;;;;14.43;10.40;;;5.80;48.40;;;;;;2615186;39;21007;-80
2022/04/18 03:28:43;;;;;;;12.20;9.70;;;5.70;51.00;;;;;;2614462;47;20497;-81
2022/04/18 03:31:10;;;;;;;11.57;9.60;;;5.70;55.30;;;;;;2614335;47;20372;-80
2022/04/18 03:33:38;;;;;;;11.23;10.13;;;5.70;56.20;;;;;;2614720;54;20163;-80
2022/04/18 03:41:34;;;;;;;11.00;9.90;;;5.60;58.90;;;;;;2614386;47;20372;-81
2022/04/18 03:44:01;;;;;;;11.00;9.83;;;5.60;60.00;;;;;;2614510;47;20916;-80
2022/04/18 03:46:28;;;;;;;14.17;11.20;;;5.50;63.60;;;;;;2614441;47;20431;-80
2022/04/18 03:48:54;;;;;;;12.20;11.00;;;5.50;66.00;;;;;;2614360;47;20547;-80
2022/04/18 03:51:20;;;;;;;12.40;11.10;;;5.50;72.50;;;;;;2614195;47;20388;-80
2022/04/18 03:53:46;;;;;;;13.30;11.53;;;5.50;71.20;;;;;;2614158;47;20797;-79
2022/04/18 03:56:12;;;;;;;11.20;10.10;;;5.50;71.10;;;;;;2614384;39;20752;-80
2022/04/18 03:59:04;;;;;;;13.83;11.20;;;5.50;70.40;;;;;;2614274;54;20450;-80
2022/04/18 04:01:33;;;;;;;11.30;10.13;;;5.40;77.80;;;;;;2614327;47;20370;-79
2022/04/18 04:04:00;;;;;;;18.53;12.33;;;5.40;78.50;;;;;;2614279;54;20388;-80
2022/04/18 04:06:26;;;;;;;12.20;11.00;;;5.20;79.80;;;;;;2614114;47;21214;-80
2022/04/18 04:08:52;;;;;;;13.17;11.30;;;5.10;86.40;;;;;;2613929;47;21393;-80
2022/04/18 04:11:23;;;;;;;12.37;10.80;;;5.00;90.80;;;;;;2614302;39;20729;-81
2022/04/18 04:13:49;;;;;;;11.60;10.40;;;5.00;92.50;;;;;;2613889;47;20409;-79
2022/04/18 04:16:18;;;;;;;12.80;10.60;;;5.00;92.50;;;;;;2613768;47;20393;-82
2022/04/18 04:18:45;;;;;;;15.87;11.80;;;5.10;93.20;;;;;;2613547;47;20499;-81
2022/04/18 04:21:12;;;;;;;12.50;11.30;;;5.10;91.90;;;;;;2614133;54;20398;-80
2022/04/18 04:23:39;;;;;;;13.13;11.20;;;5.20;91.40;;;;;;2613795;47;20392;-79
2022/04/18 04:26:20;;;;;;;13.67;12.17;;;5.20;90.70;;;;;;2613533;47;20386;-81
2022/04/18 04:28:49;;;;;;;15.70;11.17;;;5.10;93.80;;;;;;2613471;47;20383;-79
2022/04/18 04:31:39;;;;;;;14.83;10.80;;;5.20;94.60;;;;;;2613883;47;20504;-81
2022/04/18 04:34:05;;;;;;;15.60;12.03;;;4.90;99.00;;;;;;2613939;39;20791;-80
2022/04/18 04:36:37;;;;;;;12.97;11.67;;;5.10;99.20;;;;;;2613219;47;20396;-79
2022/04/18 04:39:03;;;;;;;18.27;12.97;;;5.00;99.40;;;;;;2613385;47;21083;-80
2022/04/18 04:41:37;;;;;;;12.93;11.30;;;5.10;98.90;;;;;;2613592;47;20164;-81
2022/04/18 04:44:06;;;;;;;16.93;11.03;;;5.10;99.70;;;;;;2614263;54;20395;-80
2022/04/18 04:46:51;;;;;;;13.00;11.20;;;4.90;99.90;;;;;;2613995;46;20394;-81
2022/04/18 04:49:18;;;;;;;13.70;12.30;;;4.90;99.90;;;;;;2613876;47;20424;-79
2022/04/18 04:52:11;;;;;;;17.20;11.63;;;4.90;99.90;;;;;;2614091;47;20398;-81
2022/04/18 04:54:39;;;;;;;14.80;11.53;;;5.00;99.90;;;;;;2614117;47;21433;-81
2022/04/18 04:57:07;;;;;;;13.97;12.10;;;4.90;99.90;;;;;;2613717;47;20408;-80
2022/04/18 04:59:54;;;;;;;13.87;12.47;;;5.10;99.90;;;;;;2613894;47;20423;-81
2022/04/18 05:02:24;;;;;;;14.87;11.53;;;5.10;99.90;;;;;;2613985;47;20417;-83
2022/04/18 05:04:50;;;;;;;15.63;12.80;;;5.10;99.90;;;;;;2614166;47;20370;-79
2022/04/18 05:07:16;;;;;;;16.70;12.53;;;5.20;99.90;;;;;;2614039;47;20512;-79
2022/04/18 05:10:00;;;;;;;14.60;13.17;;;5.10;99.90;;;;;;2614318;39;21016;-80
2022/04/18 05:12:28;;;;;;;18.77;13.17;;;5.00;99.90;;;;;;2614167;47;21398;-80
2022/04/18 05:15:03;;;;;;;16.60;14.90;;;5.00;99.90;;;;;;2613948;46;20392;-79
2022/04/18 05:17:35;;;;;;;16.17;13.50;;;5.20;99.90;;;;;;2614096;47;20388;-81
2022/04/18 05:20:11;;;;;;;19.90;13.60;;;5.30;99.90;;;;;;2614636;39;20769;-80
2022/04/18 05:22:40;;;;;;;17.23;14.87;;;5.70;99.90;;;;;;2613881;46;20373;-81
2022/04/18 05:25:11;;;;;;;16.33;13.07;;;5.90;99.90;;;;;;2614301;47;20389;-80
2022/04/18 05:27:44;;;;;;;14.53;13.10;;;6.40;98.20;;;;;;2613973;46;20966;-80
2022/04/18 05:30:37;;;;;;;16.07;13.40;;;6.90;88.40;;;;;;2613928;39;20911;-80
2022/04/18 05:33:03;;;;;;;18.13;15.57;;;7.50;80.40;;;;;;2613688;54;20542;-81
2022/04/18 05:35:33;;;;;;;20.90;17.20;;;8.10;63.90;;;;;;2613782;47;20446;-81
2022/04/18 05:37:59;;;;;;;18.23;15.80;;;8.80;47.20;;;;;;2613747;46;20451;-80
2022/04/18 05:40:31;;;;;;;28.00;18.10;;;9.40;36.50;;;;;;2613932;47;20392;-81
2022/04/18 05:42:57;;;;;;;19.27;17.30;;;10.10;27.30;;;;;;2613851;39;20826;-81
2022/04/18 05:45:25;;;;;;;21.30;17.40;;;10.50;17.30;;;;;;2613845;47;20382;-81
2022/04/18 05:48:01;;;;;;;18.20;16.20;;;10.60;11.40;;;;;;2613998;47;20402;-81
2022/04/18 05:50:32;;;;;;;19.20;15.77;;;10.80;11.70;;;;;;2613846;39;20771;-80
2022/04/18 05:53:25;;;;;;;15.40;13.70;;;10.80;11.40;;;;;;2613113;54;20519;-81
2022/04/18 05:56:14;;;;;;;20.27;15.63;;;11.10;9.10;;;;;;2613924;47;20403;-82
2022/04/18 05:58:59;;;;;;;17.90;16.10;;;11.40;6.70;;;;;;2614131;54;20386;-81
2022/04/18 06:01:51;;;;;;;18.93;16.43;;;11.40;5.10;;;;;;2613768;47;20564;-81
2022/04/18 06:04:25;;;;;;;19.53;16.30;;;11.40;6.40;;;;;;2613712;46;20408;-81
2022/04/18 06:07:09;;;;;;;25.63;20.10;;;11.60;5.50;;;;;;2613868;39;20788;-82
2022/04/18 06:09:34;;;;;;;25.10;22.43;;;11.90;1.10;;;;;;2613331;54;20618;-80
2022/04/18 06:12:01;;;;;;;28.57;22.97;;;12.10;1.00;;;;;;2613533;47;20419;-80
2022/04/18 06:14:31;;;;;;;34.37;27.17;;;12.40;1.00;;;;;;2613271;46;20420;-80
2022/04/18 06:16:56;;;;;;;28.30;23.53;;;12.70;1.00;;;;;;2631516;36;20868;-81
2022/04/18 06:19:23;;;;;;;30.43;25.47;;;13.10;1.00;;;;;;2613174;47;20183;-80
2022/04/18 06:21:49;;;;;;;26.40;22.70;;;13.30;1.00;;;;;;2613225;54;20487;-81
2022/04/18 06:24:16;;;;;;;31.60;25.37;;;13.60;1.00;;;;;;2613176;47;20416;-81
2022/04/18 06:26:50;;;;;;;29.37;26.23;;;13.80;1.00;;;;;;2613144;46;20378;-82
2022/04/18 06:29:16;;;;;;;32.07;25.97;;;14.30;1.00;;;;;;2612754;47;20452;-80
2022/04/18 06:31:49;;;;;;;30.13;24.80;;;14.50;1.00;;;;;;2613046;47;20710;-82
2022/04/18 06:34:18;;;;;;;28.13;25.10;;;14.90;1.00;;;;;;2613160;47;20468;-79
2022/04/18 06:36:44;;;;;;;25.97;23.47;;;15.10;1.00;;;;;;2613150;54;20428;-81
2022/04/18 06:39:43;;;;;;;27.00;23.07;;;15.40;1.00;;;;;;2613405;47;20512;-80
2022/04/18 06:42:13;;;;;;;27.57;24.60;;;15.40;1.00;;;;;;2613004;47;20958;-81
2022/04/18 06:44:43;;;;;;;28.80;25.73;;;15.40;1.00;;;;;;2613116;47;20397;-81
2022/04/18 06:47:09;;;;;;;28.07;22.50;;;15.50;1.00;;;;;;2613212;47;20421;-80
2022/04/18 06:49:53;;;;;;;26.37;23.70;;;15.70;1.00;;;;;;2613479;54;20400;-81
2022/04/18 06:52:38;;;;;;;26.30;23.57;;;16.20;1.00;;;;;;2613354;54;20409;-81
2022/04/18 06:55:23;;;;;;;22.03;19.53;;;16.40;1.00;;;;;;2613655;54;20405;-83
2022/04/18 06:57:50;;;;;;;21.53;19.37;;;16.60;1.00;;;;;;2613264;47;21186;-82
2022/04/18 07:00:17;;;;;;;19.83;17.53;;;16.80;1.00;;;;;;2613373;51;20430;-81
2022/04/18 07:02:46;;;;;;;19.60;17.40;;;16.90;1.00;;;;;;2613805;46;20554;-81
2022/04/18 07:05:12;;;;;;;17.77;15.87;;;16.90;1.00;;;;;;2612972;46;20176;-82
2022/04/18 07:07:38;;;;;;;16.43;14.17;;;17.10;1.00;;;;;;2613065;47;20406;-84
2022/04/18 07:10:04;;;;;;;16.00;14.60;;;17.20;1.00;;;;;;2612928;47;20166;-81
2022/04/18 07:12:31;;;;;;;20.13;15.70;;;17.40;1.00;;;;;;2613856;39;20775;-81
2022/04/18 07:14:59;;;;;;;14.77;13.30;;;17.40;1.00;;;;;;2613450;47;20445;-83
2022/04/18 07:17:26;;;;;;;14.17;12.70;;;17.60;1.00;;;;;;2613404;47;20165;-83
2022/04/18 07:19:55;;;;;;;14.37;12.90;;;17.80;1.00;;;;;;2613459;47;20960;-82
2022/04/18 07:22:23;;;;;;;13.70;11.77;;;18.00;1.00;;;;;;2613479;47;20419;-83
2022/04/18 07:24:53;;;;;;;12.87;11.67;;;17.80;1.00;;;;;;2612978;47;20463;-83
2022/04/18 07:27:22;;;;;;;12.80;11.40;;;17.80;1.00;;;;;;2613301;47;20445;-82
2022/04/18 07:29:56;;;;;;;11.73;10.20;;;18.00;1.00;;;;;;2613608;47;20410;-82
2022/04/18 07:32:22;;;;;;;10.00;9.10;;;18.10;1.00;;;;;;2613232;47;20406;-82
2022/04/18 07:34:49;;;;;;;8.80;8.00;;;18.40;1.00;;;;;;2613173;47;20509;-81
2022/04/18 07:37:24;;;;;;;9.90;8.90;;;18.80;1.00;;;;;;2613154;47;20438;-83
2022/04/18 07:39:50;;;;;;;9.23;8.53;;;18.90;1.00;;;;;;2613031;54;20549;-83
2022/04/18 07:42:16;;;;;;;10.47;8.50;;;19.30;1.00;;;;;;2612885;47;20177;-81
2022/04/18 07:44:42;;;;;;;9.80;7.47;;;19.90;1.00;;;;;;2612963;47;20163;-82
2022/04/18 07:47:08;;;;;;;7.27;6.77;;;19.90;1.00;;;;;;2613008;47;20423;-81
2022/04/18 07:49:35;;;;;;;5.30;5.00;;;19.90;1.00;;;;;;2613106;47;20547;-82
2022/04/18 07:52:01;;;;;;;5.90;5.10;;;20.00;1.00;;;;;;2613593;39;20891;-82
2022/04/18 07:54:36;;;;;;;5.47;5.07;;;19.60;1.00;;;;;;2613337;47;20427;-83
2022/04/18 07:57:02;;;;;;;5.37;5.07;;;19.50;1.00;;;;;;2613322;47;20593;-83
2022/04/18 07:59:48;;;;;;;6.23;4.37;;;19.80;1.00;;;;;;2613818;47;20169;-84
2022/04/18 08:02:13;;;;;;;5.27;4.97;;;19.80;1.00;;;;;;2613475;47;20416;-83
2022/04/18 08:04:58;;;;;;;5.03;4.63;;;20.00;1.00;;;;;;2613506;54;20162;-82
2022/04/18 08:07:36;;;;;;;6.27;5.77;;;19.80;1.00;;;;;;2613053;47;20448;-84
2022/04/18 08:10:03;;;;;;;4.63;4.33;;;19.80;1.00;;;;;;2615982;46;20410;-82
2022/04/18 08:12:29;;;;;;;5.40;5.10;;;19.90;1.00;;;;;;2617380;54;20404;-81
2022/04/18 08:15:27;;;;;;;5.03;4.63;;;19.80;1.00;;;;;;2617216;47;20451;-83
2022/04/18 08:17:53;;;;;;;5.83;5.43;;;20.20;1.00;;;;;;2618226;47;20407;-82
2022/04/18 08:20:36;;;;;;;5.70;5.30;;;20.60;1.00;;;;;;2618014;47;21037;-82
2022/04/18 08:23:02;;;;;;;5.90;5.40;;;20.90;1.00;;;;;;2618326;47;20920;-81
2022/04/18 08:25:57;;;;;;;5.80;5.50;;;20.80;1.00;;;;;;2617286;54;20147;-83
2022/04/18 08:28:46;;;;;;;5.70;5.30;;;20.50;1.00;;;;;;2617398;47;20396;-83
2022/04/18 08:31:12;;;;;;;6.30;5.90;;;20.80;1.00;;;;;;2617081;54;20421;-82
2022/04/18 08:34:04;;;;;;;6.50;6.10;;;21.00;1.00;;;;;;2617280;54;20422;-82
2022/04/18 08:36:30;;;;;;;5.80;5.40;;;20.90;1.00;;;;;;2617528;46;20402;-83
2022/04/18 08:38:57;;;;;;;5.63;5.33;;;20.80;1.00;;;;;;2617517;47;20443;-83
2022/04/18 08:41:51;;;;;;;5.60;5.30;;;21.90;1.00;;;;;;2617342;47;20431;-83
2022/04/18 08:44:30;;;;;;;5.10;4.80;;;21.80;1.00;;;;;;2617731;47;20408;-82
2022/04/18 08:46:56;;;;;;;5.40;5.10;;;21.50;1.00;;;;;;2617228;47;20398;-83
2022/04/18 08:55:01;;;;;;;4.80;4.50;;;21.70;1.00;;;;;;2617401;47;20400;-83
2022/04/18 08:57:28;;;;;;;6.43;5.47;;;22.20;1.00;;;;;;2617061;47;20391;-83
2022/04/18 08:59:55;;;;;;;5.40;5.10;;;22.20;1.00;;;;;;2617787;39;20813;-82
2022/04/18 09:02:21;;;;;;;6.20;5.80;;;21.80;1.00;;;;;;2617928;39;20788;-83
2022/04/18 09:05:16;;;;;;;5.60;5.23;;;22.00;1.00;;;;;;2617757;47;20404;-82
2022/04/18 09:08:05;;;;;;;4.90;4.60;;;22.00;1.00;;;;;;2618440;47;20430;-83
2022/04/18 09:10:36;;;;;;;5.93;5.43;;;21.90;1.00;;;;;;2618376;46;20178;-81
2022/04/18 09:13:06;;;;;;;5.27;4.93;;;22.00;1.00;;;;;;2635840;36;20451;-83
2022/04/18 09:15:51;;;;;;;5.47;5.17;;;22.10;1.00;;;;;;2618585;54;20415;-83
2022/04/18 09:18:20;;;;;;;5.83;4.60;;;22.80;1.00;;;;;;2618628;47;20423;-83
2022/04/18 09:20:58;;;;;;;9.23;5.47;;;22.70;1.00;;;;;;2618135;47;20503;-82
2022/04/18 09:23:28;;;;;;;5.47;5.00;;;22.90;1.00;;;;;;2618252;47;20410;-83
2022/04/18 09:26:08;;;;;;;5.03;4.63;;;22.50;1.00;;;;;;2618160;54;20406;-82
2022/04/18 09:28:40;;;;;;;5.30;5.00;;;22.40;1.00;;;;;;2618146;47;20423;-83
2022/04/18 09:31:11;;;;;;;5.47;5.17;;;22.70;1.00;;;;;;2618309;39;20811;-82
2022/04/18 09:33:37;;;;;;;6.10;5.63;;;22.10;1.00;;;;;;2618027;47;20399;-83
2022/04/18 09:36:07;;;;;;;5.80;5.23;;;22.90;1.00;;;;;;2617938;47;20422;-82
2022/04/18 09:38:39;;;;;;;5.53;5.13;;;22.80;1.00;;;;;;2617810;47;21089;-84
2022/04/18 09:41:33;;;;;;;5.93;5.53;;;22.80;1.00;;;;;;2618360;54;20403;-83
2022/04/18 09:44:28;;;;;;;5.97;5.57;;;22.90;1.00;;;;;;2618439;47;20443;-82
2022/04/18 09:46:57;;;;;;;5.57;5.27;;;22.30;1.00;;;;;;2619718;47;20430;-83
2022/04/18 09:49:50;;;;;;;5.63;5.33;;;22.60;1.00;;;;;;2637334;36;20589;-82
2022/04/18 09:52:24;;;;;;;6.13;5.63;;;23.00;1.00;;;;;;2619237;47;20477;-83
2022/04/18 09:54:54;;;;;;;6.20;5.70;;;22.90;1.00;;;;;;2619366;47;20418;-82
2022/04/18 09:57:26;;;;;;;6.33;5.93;;;23.20;1.00;;;;;;2619191;47;20245;-84
2022/04/18 09:59:54;;;;;;;5.47;5.17;;;22.80;1.00;;;;;;2619136;54;20407;-81
2022/04/18 10:02:21;;;;;;;6.27;5.87;;;23.20;1.00;;;;;;2619056;47;20447;-83
2022/04/18 10:04:48;;;;;;;5.67;5.13;;;23.80;1.00;;;;;;2619485;47;20410;-81
2022/04/18 10:07:14;;;;;;;5.57;5.03;;;23.50;1.00;;;;;;2619393;46;20407;-82
2022/04/18 10:09:42;;;;;;;6.20;5.80;;;23.30;1.00;;;;;;2619477;39;20934;-83
2022/04/18 10:12:09;;;;;;;5.40;5.10;;;23.50;1.00;;;;;;2619747;39;22168;-82
2022/04/18 10:14:36;;;;;;;6.50;6.10;;;23.60;1.00;;;;;;2619326;46;20475;-84
2022/04/18 10:17:05;;;;;;;6.00;5.60;;;23.90;1.00;;;;;;2622087;39;20813;-83
2022/04/18 10:19:50;;;;;;;5.57;5.17;;;23.80;1.00;;;;;;2619991;54;20429;-82
2022/04/18 10:23:06;;;;;;;6.20;5.70;;;23.80;1.00;;;;;;2619238;47;20475;-82
2022/04/18 10:25:51;;;;;;;5.63;5.33;;;24.20;1.00;;;;;;2619753;39;20787;-83
2022/04/18 10:28:20;;;;;;;6.20;5.70;;;24.10;1.00;;;;;;2620074;39;20795;-83
2022/04/18 10:30:56;;;;;;;6.27;5.87;;;24.30;1.00;;;;;;2619468;46;20419;-83
2022/04/18 10:33:23;;;;;;;5.40;5.00;;;23.90;1.00;;;;;;2619428;54;20991;-83
2022/04/18 10:35:55;;;;;;;6.50;6.00;;;23.10;1.00;;;;;;2619493;54;21048;-85
2022/04/18 10:38:26;;;;;;;6.70;6.10;;;22.70;1.00;;;;;;2619461;47;20435;-83
2022/04/18 10:41:14;;;;;;;6.80;6.27;;;23.10;1.00;;;;;;2619088;47;20419;-83
2022/04/18 10:44:05;;;;;;;5.57;5.23;;;23.80;1.00;;;;;;2619083;54;20415;-83
2022/04/18 10:46:32;;;;;;;6.83;5.53;;;24.10;1.00;;;;;;2619239;47;20412;-83
2022/04/18 10:49:06;;;;;;;5.40;5.00;;;24.40;1.00;;;;;;2619223;47;20419;-83
2022/04/18 10:51:37;;;;;;;5.20;4.90;;;23.80;1.00;;;;;;2619257;46;20399;-84
2022/04/18 10:54:23;;;;;;;5.87;5.47;;;24.00;1.00;;;;;;2619180;51;20408;-83
2022/04/18 10:56:57;;;;;;;5.90;5.60;;;24.60;1.00;;;;;;2620090;31;20862;-84
2022/04/18 10:59:33;;;;;;;5.03;4.63;;;24.70;1.00;;;;;;2619336;47;20557;-84
2022/04/18 11:02:01;;;;;;;5.60;5.27;;;24.60;1.00;;;;;;2619959;54;20400;-84
2022/04/18 11:04:29;;;;;;;12.53;5.40;;;24.10;1.00;;;;;;2619348;54;20907;-84
2022/04/18 11:07:13;;;;;;;5.10;4.70;;;24.10;1.00;;;;;;2620301;47;20436;-83
2022/04/18 11:09:44;;;;;;;5.53;5.13;;;24.20;1.00;;;;;;2619576;47;20488;-82
2022/04/18 11:12:16;;;;;;;4.80;4.43;;;24.00;1.00;;;;;;2619520;54;20947;-83
2022/04/18 11:14:53;;;;;;;5.67;5.30;;;24.60;1.00;;;;;;2621482;39;20764;-84
2022/04/18 11:17:52;;;;;;;6.07;5.57;;;24.60;1.00;;;;;;2619419;47;20408;-83
2022/04/18 11:20:37;;;;;;;5.53;5.17;;;24.40;1.00;;;;;;2618891;39;20831;-81
2022/04/18 11:23:21;;;;;;;5.60;5.10;;;24.30;1.00;;;;;;2617853;54;20404;-82
2022/04/18 11:26:01;;;;;;;5.90;5.50;;;24.50;1.00;;;;;;2617684;39;20795;-84
2022/04/18 11:28:41;;;;;;;5.83;5.43;;;24.60;1.00;;;;;;2616900;54;20407;-84
2022/04/18 11:31:17;;;;;;;6.20;5.70;;;24.90;1.00;;;;;;2617284;54;20407;-83
2022/04/18 11:33:44;;;;;;;6.10;5.70;;;24.90;1.00;;;;;;2617317;47;20392;-83
2022/04/18 11:36:13;;;;;;;6.20;5.70;;;24.70;1.00;;;;;;2617053;54;20447;-82
2022/04/18 11:38:39;;;;;;;6.60;6.10;;;24.90;1.00;;;;;;2616785;54;20419;-83
2022/04/18 11:41:14;;;;;;;6.53;6.13;;;25.00;1.00;;;;;;2616483;47;20467;-84
2022/04/18 11:43:41;;;;;;;6.13;5.73;;;24.80;1.00;;;;;;2617052;39;20533;-83
2022/04/18 11:46:09;;;;;;;6.10;5.67;;;24.60;1.00;;;;;;2616343;54;20953;-83
2022/04/18 11:48:38;;;;;;;7.20;6.70;;;24.60;1.00;;;;;;2616694;47;20956;-82
2022/04/18 11:51:08;;;;;;;5.83;5.53;;;24.80;1.00;;;;;;2616933;47;20963;-82
2022/04/18 11:53:35;;;;;;;5.73;5.33;;;24.90;1.00;;;;;;2617223;46;23674;-84
2022/04/18 11:56:05;;;;;;;5.90;5.50;;;24.90;1.00;;;;;;2617571;46;20439;-83
2022/04/18 11:58:41;;;;;;;6.50;6.10;;;24.90;1.00;;;;;;2617775;47;20419;-82
2022/04/18 12:06:46;;;;;;;5.40;5.00;;;24.60;1.00;;;;;;2617227;54;20403;-82
2022/04/18 12:09:22;;;;;;;6.10;5.60;;;24.60;1.00;;;;;;2616686;46;20473;-83
2022/04/18 12:11:48;;;;;;;5.80;5.50;;;24.60;1.00;;;;;;2617883;54;20411;-83
2022/04/18 12:14:14;;;;;;;6.60;6.10;;;24.50;1.00;;;;;;2616624;54;21046;-82
2022/04/18 12:16:41;;;;;;;6.43;5.87;;;24.40;1.00;;;;;;2616884;54;20507;-82
2022/04/18 12:19:15;;;;;;;5.60;5.20;;;24.30;1.00;;;;;;2617277;54;20675;-83
2022/04/18 12:21:42;;;;;;;5.97;5.60;;;24.20;1.00;;;;;;2617125;47;20980;-82
2022/04/18 12:24:40;;;;;;;6.90;6.50;;;24.20;1.00;;;;;;2617029;39;20497;-83
2022/04/18 12:27:06;;;;;;;7.00;6.50;;;23.90;1.00;;;;;;2616049;54;20984;-82
2022/04/18 12:29:33;;;;;;;6.70;6.20;;;23.50;1.00;;;;;;2615354;54;20506;-83
2022/04/18 12:32:00;;;;;;;5.97;5.57;;;23.70;1.00;;;;;;2615850;54;20168;-83
2022/04/18 12:34:26;;;;;;;6.50;5.90;;;23.90;1.00;;;;;;2616532;54;20431;-81
2022/04/18 12:36:59;;;;;;;6.40;5.83;;;24.20;1.00;;;;;;2616034;54;20458;-82
2022/04/18 12:39:26;;;;;;;5.30;5.00;;;24.30;1.00;;;;;;2616176;47;20155;-83
2022/04/18 12:42:05;;;;;;;6.63;6.13;;;24.10;1.00;;;;;;2616331;46;20426;-84
2022/04/18 12:44:30;;;;;;;12.67;11.60;;;24.10;1.00;;;;;;2616363;47;20422;-84
2022/04/18 12:46:57;;;;;;;27.23;24.93;;;23.80;1.00;;;;;;2617080;46;20463;-83
2022/04/18 12:49:23;;;;;;;9.67;8.97;;;23.60;1.00;;;;;;2617145;47;20262;-83
2022/04/18 12:51:50;;;;;;;7.13;6.17;;;23.60;1.00;;;;;;2617347;54;20482;-83
2022/04/18 12:54:21;;;;;;;7.13;6.63;;;23.60;1.00;;;;;;2616117;39;20545;-83
2022/04/18 12:56:48;;;;;;;6.60;6.10;;;23.90;1.00;;;;;;2616468;47;20444;-83
2022/04/18 12:59:25;;;;;;;5.40;5.00;;;24.10;1.00;;;;;;2616234;47;20943;-84
2022/04/18 13:01:51;;;;;;;5.70;5.20;;;24.30;1.00;;;;;;2616578;47;20933;-83
2022/04/18 13:04:23;;;;;;;5.43;5.03;;;24.40;1.00;;;;;;2617365;47;20997;-83
2022/04/18 13:06:57;;;;;;;6.03;5.43;;;24.30;1.00;;;;;;2618092;54;20518;-83
2022/04/18 13:09:22;;;;;;;5.73;5.43;;;24.40;1.00;;;;;;2617643;47;20426;-84
2022/04/18 13:11:49;;;;;;;5.67;5.27;;;24.40;1.00;;;;;;2617846;46;21395;-84
2022/04/18 13:14:15;;;;;;;5.60;5.30;;;24.40;1.00;;;;;;2617764;47;20829;-83
2022/04/18 13:16:42;;;;;;;5.93;5.30;;;24.30;1.00;;;;;;2617702;54;20413;-82
2022/04/18 13:19:14;;;;;;;5.80;5.50;;;24.10;1.00;;;;;;2618579;54;21038;-84
2022/04/18 13:21:41;;;;;;;5.20;4.77;;;24.00;1.00;;;;;;2617567;46;20453;-84
2022/04/18 13:24:08;;;;;;;6.20;5.70;;;24.40;1.00;;;;;;2617598;54;20420;-82
2022/04/18 13:26:36;;;;;;;5.87;5.47;;;24.60;1.00;;;;;;2618364;54;20410;-84
2022/04/18 13:29:03;;;;;;;6.20;5.70;;;24.50;1.00;;;;;;2617237;51;20456;-86
2022/04/18 13:31:29;;;;;;;5.67;5.27;;;24.50;1.00;;;;;;2617416;54;20384;-85
2022/04/18 13:33:55;;;;;;;5.67;5.27;;;24.70;1.00;;;;;;2617558;31;20819;-83
2022/04/18 13:36:30;;;;;;;4.73;4.43;;;24.20;1.00;;;;;;2617355;54;20395;-84
2022/04/18 13:38:57;;;;;;;5.43;5.13;;;24.20;1.00;;;;;;2617364;54;20170;-84